Time;durP1;ratioP1;P1;durP2;ratioP2;P2;SDS_P1;SDS_P2;PMS_P1;PMS_P2;Temp;Humidity;BMP_temperature;BMP_pressure;BME280_temperature;BME280_humidity;BME280_pressure;Samples;Min_cycle;Max_cycle;Signal;HPM_P1;HPM_P2
2024/01/06 00:01:06;;;;;;;10.15;6.32;;;6.30;99.90;;;;;;4995793;28;20057;-73
2024/01/06 00:03:33;;;;;;;10.68;6.65;;;6.30;99.90;;;;;;4953032;28;20520;-73
2024/01/06 00:06:00;;;;;;;10.48;5.68;;;6.30;99.90;;;;;;5005298;28;20131;-73
2024/01/06 00:08:27;;;;;;;12.00;6.13;;;6.30;99.90;;;;;;4981684;28;20493;-74
2024/01/06 00:10:54;;;;;;;9.27;5.90;;;6.30;99.90;;;;;;5005937;28;20395;-73
2024/01/06 00:13:21;;;;;;;9.73;5.78;;;6.30;99.90;;;;;;4985818;28;20583;-73
2024/01/06 00:15:48;;;;;;;15.15;6.32;;;6.30;99.90;;;;;;5003801;28;20073;-73
2024/01/06 00:18:15;;;;;;;10.30;5.95;;;6.30;99.90;;;;;;4988576;28;20085;-74
2024/01/06 00:20:42;;;;;;;12.50;6.38;;;6.30;99.90;;;;;;4988030;28;20045;-73
2024/01/06 00:23:09;;;;;;;12.77;6.10;;;6.30;99.90;;;;;;4987702;28;20049;-74
2024/01/06 00:25:36;;;;;;;14.20;7.55;;;6.30;99.90;;;;;;4988143;28;20042;-73
2024/01/06 00:28:03;;;;;;;11.13;6.05;;;6.30;99.90;;;;;;4998317;28;20457;-74
2024/01/06 00:30:29;;;;;;;10.57;5.40;;;6.40;99.90;;;;;;5005944;28;20050;-73
2024/01/06 00:32:56;;;;;;;10.90;5.45;;;6.40;99.90;;;;;;5003745;28;20132;-73
2024/01/06 00:35:23;;;;;;;9.57;5.47;;;6.40;99.90;;;;;;4985734;28;20052;-72
2024/01/06 00:37:50;;;;;;;10.82;5.53;;;6.40;99.90;;;;;;4992787;28;20249;-73
2024/01/06 00:40:18;;;;;;;9.38;4.70;;;6.40;99.90;;;;;;5011472;28;20488;-73
2024/01/06 00:42:45;;;;;;;7.00;4.78;;;6.40;99.90;;;;;;5004504;28;20505;-73
2024/01/06 00:45:12;;;;;;;7.75;4.57;;;6.40;99.90;;;;;;4997561;28;20115;-72
2024/01/06 00:47:39;;;;;;;8.43;4.03;;;6.50;99.90;;;;;;5007693;28;20125;-72
2024/01/06 00:50:06;;;;;;;11.63;4.68;;;6.40;99.90;;;;;;5005876;28;20306;-72
2024/01/06 00:52:33;;;;;;;10.27;4.88;;;6.50;99.90;;;;;;5007215;28;20046;-72
2024/01/06 00:55:00;;;;;;;10.32;5.20;;;6.40;99.90;;;;;;4995903;28;20156;-73
2024/01/06 00:57:27;;;;;;;12.95;5.53;;;6.50;99.90;;;;;;5005610;28;20053;-73
2024/01/06 00:59:54;;;;;;;10.10;4.82;;;6.50;99.90;;;;;;5006444;28;20052;-72
2024/01/06 01:02:21;;;;;;;7.03;3.97;;;6.50;99.90;;;;;;5008160;28;20120;-72
2024/01/06 01:04:48;;;;;;;12.07;4.65;;;6.50;99.90;;;;;;4988840;28;20112;-73
2024/01/06 01:07:15;;;;;;;10.57;5.07;;;6.40;99.90;;;;;;5003461;28;20515;-72
2024/01/06 01:09:42;;;;;;;10.70;5.10;;;6.50;99.90;;;;;;5005750;28;20077;-72
2024/01/06 01:12:09;;;;;;;11.55;5.65;;;6.50;99.90;;;;;;4989450;28;20535;-73
2024/01/06 01:14:36;;;;;;;12.32;4.55;;;6.50;99.90;;;;;;5010192;28;20042;-73
2024/01/06 01:17:04;;;;;;;12.75;6.88;;;6.50;99.90;;;;;;4983767;28;20089;-72
2024/01/06 01:19:31;;;;;;;12.10;6.22;;;6.50;99.90;;;;;;4997670;28;20459;-73
2024/01/06 01:21:57;;;;;;;8.30;4.25;;;6.50;99.90;;;;;;5007503;28;20061;-73
2024/01/06 01:24:24;;;;;;;9.30;5.07;;;6.50;99.90;;;;;;5007368;28;20467;-73
2024/01/06 01:26:51;;;;;;;7.75;4.68;;;6.50;99.90;;;;;;5008667;28;20057;-73
2024/01/06 01:29:20;;;;;;;9.07;5.00;;;6.40;99.90;;;;;;5011005;28;20435;-72
2024/01/06 01:31:47;;;;;;;7.60;4.93;;;6.50;99.90;;;;;;5011056;28;20057;-73
2024/01/06 01:34:14;;;;;;;8.48;5.22;;;6.50;99.90;;;;;;5007797;28;20037;-73
2024/01/06 01:36:41;;;;;;;8.80;4.75;;;6.50;99.90;;;;;;5005671;28;20060;-73
2024/01/06 01:39:08;;;;;;;8.85;5.05;;;6.60;99.90;;;;;;5005263;28;20107;-72
2024/01/06 01:41:35;;;;;;;7.43;4.70;;;6.50;99.90;;;;;;5004621;28;20068;-73
2024/01/06 01:44:02;;;;;;;10.70;4.25;;;6.40;99.90;;;;;;5003671;28;20510;-73
2024/01/06 01:46:29;;;;;;;7.10;4.38;;;6.40;99.90;;;;;;4976248;28;20046;-72
2024/01/06 01:48:57;;;;;;;13.05;7.40;;;6.40;99.90;;;;;;4981097;28;20136;-73
2024/01/06 01:51:27;;;;;;;13.18;5.40;;;6.40;99.90;;;;;;5002083;28;20045;-73
2024/01/06 01:53:54;;;;;;;11.77;5.05;;;6.40;99.90;;;;;;4988785;28;20046;-72
2024/01/06 01:56:21;;;;;;;7.93;4.15;;;6.50;99.90;;;;;;5004259;28;20533;-72
2024/01/06 01:58:48;;;;;;;9.05;4.35;;;6.40;99.90;;;;;;5007136;28;20109;-73
2024/01/06 02:01:15;;;;;;;7.15;4.82;;;6.40;99.90;;;;;;5011718;28;20096;-72
2024/01/06 02:03:43;;;;;;;10.05;4.35;;;6.50;99.90;;;;;;4988703;28;20100;-73
2024/01/06 02:06:10;;;;;;;11.27;4.32;;;6.40;99.90;;;;;;4996162;28;20057;-73
2024/01/06 02:08:37;;;;;;;11.80;5.00;;;6.50;99.90;;;;;;5005743;28;20048;-73
2024/01/06 02:11:05;;;;;;;10.07;4.05;;;6.40;99.90;;;;;;5004987;28;20524;-73
2024/01/06 02:13:35;;;;;;;7.22;4.13;;;6.40;99.90;;;;;;4972755;28;20050;-73
2024/01/06 02:16:05;;;;;;;7.88;4.10;;;6.40;99.90;;;;;;5004922;28;20046;-73
2024/01/06 02:18:32;;;;;;;7.95;4.40;;;6.40;99.90;;;;;;5005628;28;20054;-73
2024/01/06 02:21:00;;;;;;;12.35;4.53;;;6.40;99.90;;;;;;5001896;28;20124;-74
2024/01/06 02:23:27;;;;;;;10.65;4.50;;;6.40;99.90;;;;;;4988369;28;20053;-72
2024/01/06 02:25:54;;;;;;;7.00;4.63;;;6.40;99.90;;;;;;4987955;28;20108;-73
2024/01/06 02:28:21;;;;;;;11.27;6.10;;;6.50;99.90;;;;;;4988083;28;20072;-73
2024/01/06 02:30:49;;;;;;;6.68;4.20;;;6.50;99.90;;;;;;5003703;28;20572;-72
2024/01/06 02:33:16;;;;;;;9.93;5.72;;;6.50;99.90;;;;;;5004156;28;20050;-73
2024/01/06 02:35:43;;;;;;;11.98;4.85;;;6.50;99.90;;;;;;4995584;28;20051;-73
2024/01/06 02:38:09;;;;;;;5.32;3.97;;;6.50;99.90;;;;;;5004080;28;20133;-73
2024/01/06 02:40:36;;;;;;;8.73;4.45;;;6.40;99.90;;;;;;4998971;28;20057;-73
2024/01/06 02:43:03;;;;;;;8.55;4.55;;;6.50;99.90;;;;;;5006417;28;20128;-73
2024/01/06 02:45:30;;;;;;;10.30;4.97;;;6.50;99.90;;;;;;5002148;28;20070;-73
2024/01/06 02:47:57;;;;;;;7.60;4.28;;;6.50;99.90;;;;;;5002710;28;20081;-73
2024/01/06 02:50:24;;;;;;;9.60;4.38;;;6.50;99.90;;;;;;5005071;28;20042;-73
2024/01/06 02:52:51;;;;;;;8.65;4.35;;;6.50;99.90;;;;;;5006063;28;20426;-72
2024/01/06 02:55:17;;;;;;;7.15;3.72;;;6.50;99.90;;;;;;5002078;28;20058;-72
2024/01/06 02:57:44;;;;;;;10.02;5.40;;;6.50;99.90;;;;;;5001545;28;20654;-74
2024/01/06 03:00:12;;;;;;;12.73;4.85;;;6.60;99.90;;;;;;5004877;28;20041;-73
2024/01/06 03:02:41;;;;;;;11.35;4.82;;;6.50;99.90;;;;;;5006176;28;20403;-73
2024/01/06 03:05:09;;;;;;;9.95;4.50;;;6.50;99.90;;;;;;5005237;28;20050;-75
2024/01/06 03:07:36;;;;;;;10.30;5.05;;;6.50;99.90;;;;;;5003806;28;20037;-74
2024/01/06 03:10:03;;;;;;;10.20;4.30;;;6.50;99.90;;;;;;4982288;28;20113;-72
2024/01/06 03:12:30;;;;;;;13.27;4.47;;;6.40;99.90;;;;;;5014301;28;20551;-73
2024/01/06 03:14:56;;;;;;;10.80;4.70;;;6.40;99.90;;;;;;5006268;28;20042;-72
2024/01/06 03:17:23;;;;;;;10.00;4.50;;;6.40;99.90;;;;;;5004216;28;20104;-72
2024/01/06 03:19:50;;;;;;;9.13;4.47;;;6.50;99.90;;;;;;4993946;28;20074;-72
2024/01/06 03:22:17;;;;;;;6.18;3.95;;;6.40;99.90;;;;;;5005409;28;20141;-73
2024/01/06 03:24:44;;;;;;;12.88;6.10;;;6.50;99.90;;;;;;5003197;28;20088;-73
2024/01/06 03:27:11;;;;;;;9.45;4.53;;;6.50;99.90;;;;;;4998835;28;20054;-73
2024/01/06 03:29:37;;;;;;;14.95;4.50;;;6.40;99.90;;;;;;5004432;28;20061;-72
2024/01/06 03:32:05;;;;;;;11.48;5.07;;;6.40;99.90;;;;;;5002855;28;20389;-72
2024/01/06 03:34:32;;;;;;;7.72;4.57;;;6.40;99.90;;;;;;5016788;28;20061;-72
2024/01/06 03:36:58;;;;;;;10.23;4.97;;;6.40;99.90;;;;;;5004760;28;20050;-72
2024/01/06 03:39:26;;;;;;;8.20;3.90;;;6.40;99.90;;;;;;5008213;28;20050;-72
2024/01/06 03:41:52;;;;;;;12.95;4.70;;;6.40;99.90;;;;;;5007245;28;20057;-72
2024/01/06 03:44:19;;;;;;;13.75;3.95;;;6.40;99.90;;;;;;5009246;28;20296;-72
2024/01/06 03:46:46;;;;;;;9.50;4.05;;;6.40;99.90;;;;;;4988842;28;20415;-72
2024/01/06 03:49:13;;;;;;;7.32;3.72;;;6.50;99.90;;;;;;5001445;28;20456;-72
2024/01/06 03:51:40;;;;;;;10.32;3.63;;;6.40;99.90;;;;;;5007622;28;20547;-72
2024/01/06 03:54:07;;;;;;;5.93;3.22;;;6.40;99.90;;;;;;5012045;28;20057;-71
2024/01/06 03:56:33;;;;;;;9.35;3.30;;;6.40;99.90;;;;;;5008407;28;20037;-72
2024/01/06 03:59:00;;;;;;;5.90;3.45;;;6.40;99.90;;;;;;4995796;28;20360;-73
2024/01/06 04:01:28;;;;;;;6.70;2.80;;;6.40;99.90;;;;;;5009690;28;20038;-72
2024/01/06 04:03:55;;;;;;;5.93;3.00;;;6.40;99.90;;;;;;5007286;28;20050;-73
2024/01/06 04:06:22;;;;;;;7.90;3.25;;;6.40;99.90;;;;;;5006171;28;20050;-73
2024/01/06 04:08:50;;;;;;;4.90;2.92;;;6.40;99.90;;;;;;5010042;28;20041;-73
2024/01/06 04:11:17;;;;;;;11.13;4.00;;;6.40;99.90;;;;;;5006606;28;20046;-73
2024/01/06 04:13:43;;;;;;;6.75;3.53;;;6.40;99.90;;;;;;5008284;28;20046;-71
2024/01/06 04:16:10;;;;;;;7.15;3.40;;;6.40;99.90;;;;;;5003920;28;20065;-73
2024/01/06 04:18:37;;;;;;;9.48;2.97;;;6.40;99.90;;;;;;4989228;28;20508;-73
2024/01/06 04:21:08;;;;;;;7.18;3.17;;;6.40;99.90;;;;;;5003933;28;20682;-74
2024/01/06 04:23:35;;;;;;;8.77;2.78;;;6.40;99.90;;;;;;5006817;28;20726;-73
2024/01/06 04:26:04;;;;;;;10.00;2.83;;;6.40;99.90;;;;;;5006286;28;20299;-73
2024/01/06 04:28:31;;;;;;;4.78;3.08;;;6.40;99.90;;;;;;5007319;28;20324;-73
2024/01/06 04:30:57;;;;;;;4.93;2.95;;;6.30;99.90;;;;;;4991486;28;20085;-73
2024/01/06 04:33:24;;;;;;;5.60;3.17;;;6.30;99.90;;;;;;5007417;28;20046;-73
2024/01/06 04:35:51;;;;;;;5.75;2.58;;;6.30;99.90;;;;;;5000428;28;20042;-73
2024/01/06 04:38:21;;;;;;;4.25;2.35;;;6.30;99.90;;;;;;5002744;28;20053;-73
2024/01/06 04:40:48;;;;;;;7.15;3.22;;;6.30;99.90;;;;;;5007380;28;20049;-73
2024/01/06 04:43:14;;;;;;;6.63;2.95;;;6.30;99.90;;;;;;5007218;28;20050;-73
2024/01/06 04:45:41;;;;;;;9.23;2.47;;;6.30;99.90;;;;;;4998433;28;20520;-73
2024/01/06 04:48:08;;;;;;;4.57;2.45;;;6.30;99.90;;;;;;5007667;28;20050;-72
2024/01/06 04:50:35;;;;;;;11.02;4.28;;;6.30;99.90;;;;;;4989211;28;20141;-72
2024/01/06 04:53:02;;;;;;;8.88;3.38;;;6.30;99.90;;;;;;5006558;28;20545;-72
2024/01/06 04:55:29;;;;;;;4.65;3.22;;;6.30;99.90;;;;;;5007750;28;20092;-72
2024/01/06 04:57:56;;;;;;;7.65;3.55;;;6.30;99.90;;;;;;5005566;28;20096;-72
2024/01/06 05:00:23;;;;;;;8.73;3.47;;;6.30;99.90;;;;;;5008464;28;20050;-72
2024/01/06 05:02:50;;;;;;;8.02;2.95;;;6.30;99.90;;;;;;5006714;28;20053;-71
2024/01/06 05:05:17;;;;;;;6.55;2.78;;;6.20;99.90;;;;;;5006705;28;20078;-72
2024/01/06 05:07:44;;;;;;;9.10;2.78;;;6.30;99.90;;;;;;5007615;28;20049;-73
2024/01/06 05:10:10;;;;;;;8.02;2.85;;;6.20;99.90;;;;;;5002517;28;20393;-71
2024/01/06 05:12:38;;;;;;;6.63;3.50;;;6.20;99.90;;;;;;5010626;28;20107;-72
2024/01/06 05:15:05;;;;;;;10.55;2.55;;;6.20;99.90;;;;;;5002361;28;20097;-72
2024/01/06 05:17:32;;;;;;;6.97;2.75;;;6.20;99.90;;;;;;5010511;28;20104;-72
2024/01/06 05:20:00;;;;;;;6.78;2.67;;;6.20;99.90;;;;;;4972151;28;20053;-72
2024/01/06 05:22:27;;;;;;;9.35;3.15;;;6.20;99.90;;;;;;4989524;28;20046;-73
2024/01/06 05:24:54;;;;;;;5.28;2.95;;;6.20;99.90;;;;;;4981576;28;20053;-73
2024/01/06 05:27:21;;;;;;;6.68;2.30;;;6.10;99.90;;;;;;5006359;28;20634;-72
2024/01/06 05:29:49;;;;;;;5.07;2.58;;;6.20;99.90;;;;;;5001947;28;20344;-72
2024/01/06 05:32:17;;;;;;;6.35;2.45;;;6.10;99.90;;;;;;5006839;28;20048;-72
2024/01/06 05:34:44;;;;;;;4.85;2.50;;;6.10;99.90;;;;;;5009454;28;20054;-72
2024/01/06 05:37:11;;;;;;;3.75;2.08;;;6.10;99.90;;;;;;5009087;28;20049;-73
2024/01/06 05:39:39;;;;;;;10.20;2.67;;;6.10;99.90;;;;;;5005789;28;20045;-72
2024/01/06 05:42:07;;;;;;;9.60;2.42;;;6.10;99.90;;;;;;5006490;28;20042;-72
2024/01/06 05:44:37;;;;;;;6.70;2.47;;;6.10;99.90;;;;;;5006564;28;20166;-72
2024/01/06 05:47:04;;;;;;;4.93;2.10;;;6.10;99.90;;;;;;5004878;28;20120;-71
2024/01/06 05:49:31;;;;;;;7.30;2.40;;;6.10;99.90;;;;;;5006653;28;20088;-72
2024/01/06 05:51:58;;;;;;;5.25;2.00;;;6.10;99.90;;;;;;4983907;28;20116;-72
2024/01/06 05:54:25;;;;;;;6.53;2.42;;;6.10;99.90;;;;;;5003251;28;20068;-72
2024/01/06 05:56:52;;;;;;;5.30;2.40;;;6.10;99.90;;;;;;5005396;28;20045;-71
2024/01/06 05:59:18;;;;;;;2.83;1.98;;;6.10;99.90;;;;;;4988379;28;20041;-72
2024/01/06 06:01:45;;;;;;;5.45;2.40;;;6.10;99.90;;;;;;5006136;28;20042;-72
2024/01/06 06:04:12;;;;;;;7.38;2.13;;;6.10;99.90;;;;;;4999396;28;20062;-73
2024/01/06 06:06:39;;;;;;;3.45;2.13;;;6.10;99.90;;;;;;5006307;28;20133;-72
2024/01/06 06:09:06;;;;;;;6.03;2.17;;;6.10;99.90;;;;;;4993146;28;20417;-72
2024/01/06 06:11:34;;;;;;;3.75;2.13;;;6.00;99.90;;;;;;4996405;28;20046;-72
2024/01/06 06:14:02;;;;;;;7.30;1.95;;;6.10;99.90;;;;;;4983209;28;20050;-72
2024/01/06 06:16:29;;;;;;;7.38;1.85;;;6.10;99.90;;;;;;4998770;28;20042;-72
2024/01/06 06:18:56;;;;;;;6.30;2.35;;;6.10;99.90;;;;;;4995616;28;20132;-71
2024/01/06 06:21:23;;;;;;;3.00;1.95;;;6.00;99.90;;;;;;4988069;28;20045;-72
2024/01/06 06:23:50;;;;;;;10.07;2.67;;;6.00;99.90;;;;;;4997426;28;20050;-71
2024/01/06 06:26:17;;;;;;;3.78;1.98;;;6.00;99.90;;;;;;4999711;28;20038;-71
2024/01/06 06:28:44;;;;;;;7.32;2.50;;;6.00;99.90;;;;;;4997330;28;20134;-72
2024/01/06 06:31:11;;;;;;;6.97;2.20;;;6.00;99.90;;;;;;4986848;28;20389;-72
2024/01/06 06:33:39;;;;;;;3.95;1.58;;;6.00;99.90;;;;;;5007903;28;20072;-72
2024/01/06 06:36:06;;;;;;;4.32;1.92;;;6.00;99.90;;;;;;5008102;28;20041;-73
2024/01/06 06:38:33;;;;;;;9.00;2.55;;;6.00;99.90;;;;;;5003520;28;20089;-72
2024/01/06 06:41:00;;;;;;;6.20;2.25;;;6.00;99.90;;;;;;5008786;28;20053;-73
2024/01/06 06:43:27;;;;;;;8.93;2.35;;;6.00;99.90;;;;;;5004721;28;20045;-73
2024/01/06 06:45:55;;;;;;;4.35;1.65;;;6.00;99.90;;;;;;5004380;28;20049;-72
2024/01/06 06:48:22;;;;;;;4.70;1.80;;;6.00;99.90;;;;;;4999139;28;20585;-72
2024/01/06 06:50:49;;;;;;;9.27;2.08;;;6.00;99.90;;;;;;5014156;28;20053;-72
2024/01/06 06:53:16;;;;;;;5.43;1.35;;;6.00;99.90;;;;;;5002069;28;20054;-72
2024/01/06 06:55:42;;;;;;;2.90;1.83;;;6.00;99.90;;;;;;5003889;28;20104;-71
2024/01/06 06:58:09;;;;;;;3.33;1.23;;;6.00;99.90;;;;;;4983645;28;20046;-71
2024/01/06 07:00:37;;;;;;;7.78;3.20;;;6.00;99.90;;;;;;5004440;28;20049;-71
2024/01/06 07:03:05;;;;;;;4.28;1.73;;;6.00;99.90;;;;;;5000491;28;20108;-73
2024/01/06 07:05:32;;;;;;;3.88;1.92;;;6.00;99.90;;;;;;5006199;28;20054;-73
2024/01/06 07:08:00;;;;;;;5.53;1.50;;;6.00;99.90;;;;;;5006599;28;20053;-72
2024/01/06 07:10:27;;;;;;;9.60;2.17;;;6.00;99.90;;;;;;5004239;28;20143;-72
2024/01/06 07:12:54;;;;;;;7.80;2.45;;;6.00;99.90;;;;;;5009256;28;20207;-73
2024/01/06 07:15:21;;;;;;;3.17;1.40;;;6.00;99.90;;;;;;5010278;28;20584;-72
2024/01/06 07:17:48;;;;;;;7.15;2.00;;;6.00;99.90;;;;;;5009743;28;20397;-71
2024/01/06 07:20:15;;;;;;;6.50;2.25;;;5.90;99.90;;;;;;5008214;28;20089;-73
2024/01/06 07:22:42;;;;;;;5.68;1.42;;;5.90;99.90;;;;;;5010157;28;20042;-72
2024/01/06 07:25:09;;;;;;;5.43;1.75;;;6.00;99.90;;;;;;5005428;28;20050;-72
2024/01/06 07:27:36;;;;;;;3.08;1.30;;;6.00;99.90;;;;;;4981514;28;20193;-72
2024/01/06 07:30:03;;;;;;;6.95;2.00;;;5.90;99.90;;;;;;5008500;28;20441;-72
2024/01/06 07:32:31;;;;;;;6.30;1.80;;;6.00;99.90;;;;;;4993554;28;20054;-73
2024/01/06 07:34:57;;;;;;;5.05;2.03;;;6.00;99.90;;;;;;5008409;28;20167;-72
2024/01/06 07:37:25;;;;;;;12.07;2.38;;;6.00;99.90;;;;;;5008926;28;20042;-73
2024/01/06 07:39:52;;;;;;;4.15;1.90;;;6.00;99.90;;;;;;5010911;28;20081;-72
2024/01/06 07:42:19;;;;;;;6.60;1.83;;;6.00;99.90;;;;;;5009713;28;20077;-73
2024/01/06 07:44:46;;;;;;;6.78;1.90;;;5.90;99.90;;;;;;5010555;28;20050;-73
2024/01/06 07:47:14;;;;;;;9.30;2.20;;;6.00;99.90;;;;;;5003955;28;20591;-73
2024/01/06 07:49:41;;;;;;;6.03;2.22;;;6.00;99.90;;;;;;5005906;28;20140;-72
2024/01/06 07:52:08;;;;;;;4.80;1.85;;;6.00;99.90;;;;;;5009199;28;20053;-72
2024/01/06 07:54:35;;;;;;;7.85;2.40;;;6.00;99.90;;;;;;5007317;28;20046;-73
2024/01/06 07:57:02;;;;;;;17.67;4.15;;;6.00;99.90;;;;;;5001847;28;20128;-71
2024/01/06 07:59:29;;;;;;;6.40;1.95;;;6.00;99.90;;;;;;5006383;28;20376;-72
2024/01/06 08:01:56;;;;;;;4.65;2.20;;;6.00;99.90;;;;;;5009702;28;20038;-71
2024/01/06 08:04:23;;;;;;;11.73;2.55;;;6.00;99.90;;;;;;5007487;28;20397;-71
2024/01/06 08:06:50;;;;;;;11.48;1.70;;;6.00;99.90;;;;;;4659305;28;10000458;-71
2024/01/06 08:09:20;;;;;;;6.80;1.95;;;6.00;99.90;;;;;;5016929;28;20251;-71
2024/01/06 08:11:48;;;;;;;4.32;1.85;;;6.00;99.90;;;;;;5004521;28;20048;-71
2024/01/06 08:14:17;;;;;;;4.97;2.00;;;6.00;99.90;;;;;;4980325;28;20054;-71
2024/01/06 08:16:44;;;;;;;5.25;1.90;;;6.00;99.90;;;;;;5003302;28;20064;-72
2024/01/06 08:19:11;;;;;;;7.43;2.15;;;6.00;99.90;;;;;;5002932;28;20077;-71
2024/01/06 08:21:38;;;;;;;8.50;2.80;;;5.90;99.90;;;;;;5008565;28;20045;-71
2024/01/06 08:24:05;;;;;;;10.00;2.15;;;5.90;99.90;;;;;;4984699;28;20053;-71
2024/01/06 08:26:34;;;;;;;4.75;2.08;;;6.00;99.90;;;;;;5003173;28;20046;-72
2024/01/06 08:29:01;;;;;;;8.23;2.05;;;6.00;99.90;;;;;;5004405;28;20509;-72
2024/01/06 08:31:28;;;;;;;8.60;2.28;;;6.00;99.90;;;;;;5003805;28;20386;-72
2024/01/06 08:33:55;;;;;;;4.10;2.15;;;6.10;99.90;;;;;;4981994;28;20357;-72
2024/01/06 08:36:22;;;;;;;7.78;2.00;;;6.00;99.90;;;;;;4999859;28;20522;-73
2024/01/06 08:38:49;;;;;;;5.85;1.92;;;6.00;99.90;;;;;;5001107;28;20066;-74
2024/01/06 08:41:15;;;;;;;8.27;2.65;;;6.00;99.90;;;;;;5003261;28;20080;-74
2024/01/06 08:43:42;;;;;;;5.32;1.77;;;6.00;99.90;;;;;;5004181;28;20056;-73
2024/01/06 08:46:09;;;;;;;2.95;1.60;;;6.00;99.90;;;;;;5006336;28;20112;-73
2024/01/06 08:48:36;;;;;;;5.78;1.73;;;6.00;99.90;;;;;;4996221;28;20532;-74
2024/01/06 08:51:03;;;;;;;3.17;1.35;;;6.00;99.90;;;;;;4996300;28;20107;-72
2024/01/06 08:53:30;;;;;;;14.10;1.73;;;6.00;99.90;;;;;;5002966;28;20054;-73
2024/01/06 08:55:57;;;;;;;2.70;1.60;;;6.10;99.90;;;;;;4994876;28;20054;-72
2024/01/06 08:58:27;;;;;;;4.50;1.30;;;6.10;99.90;;;;;;4982192;28;20198;-72
2024/01/06 09:00:54;;;;;;;5.25;1.40;;;6.10;99.90;;;;;;4979768;28;20149;-71
2024/01/06 09:03:25;;;;;;;5.13;1.55;;;6.10;99.90;;;;;;5002248;28;20171;-73
2024/01/06 09:05:55;;;;;;;6.40;2.35;;;6.20;99.90;;;;;;5003081;28;20140;-72
2024/01/06 09:08:23;;;;;;;1.52;0.90;;;6.20;99.90;;;;;;4987066;28;20085;-73
2024/01/06 09:10:56;;;;;;;3.33;1.10;;;6.20;99.90;;;;;;5003228;28;20125;-72
2024/01/06 09:13:23;;;;;;;2.70;1.30;;;6.20;99.90;;;;;;4985483;28;20065;-73
2024/01/06 09:15:53;;;;;;;4.03;1.10;;;6.10;99.90;;;;;;4999055;28;20049;-73
2024/01/06 09:18:20;;;;;;;1.92;1.10;;;6.20;99.90;;;;;;4984953;28;20493;-73
2024/01/06 09:20:48;;;;;;;1.90;0.90;;;6.20;99.90;;;;;;5012216;28;20049;-69
2024/01/06 09:23:15;;;;;;;8.30;1.10;;;6.20;99.90;;;;;;5002798;28;20057;-67
2024/01/06 09:25:42;;;;;;;2.63;1.20;;;6.20;99.90;;;;;;4986956;28;20049;-70
2024/01/06 09:28:10;;;;;;;2.33;1.08;;;6.30;99.90;;;;;;4985009;28;20069;-68
2024/01/06 09:30:37;;;;;;;3.20;1.10;;;6.30;99.90;;;;;;4995496;28;20066;-66
2024/01/06 09:33:04;;;;;;;2.58;1.00;;;6.30;99.90;;;;;;5002663;28;20050;-68
2024/01/06 09:35:32;;;;;;;4.75;1.13;;;6.30;99.90;;;;;;5001817;28;20484;-68
2024/01/06 09:37:59;;;;;;;5.20;1.08;;;6.30;99.90;;;;;;4997714;28;20108;-69
2024/01/06 09:40:26;;;;;;;3.70;0.60;;;6.30;99.90;;;;;;4985090;28;20100;-68
2024/01/06 09:42:53;;;;;;;3.13;0.93;;;6.20;99.90;;;;;;4999283;28;20100;-69
2024/01/06 09:45:21;;;;;;;3.47;1.17;;;6.30;99.90;;;;;;5005154;28;20058;-68
2024/01/06 09:47:51;;;;;;;2.72;0.90;;;6.30;99.90;;;;;;5006971;28;20073;-67
2024/01/06 09:50:21;;;;;;;3.00;0.82;;;6.30;99.90;;;;;;4984657;28;20054;-69
2024/01/06 09:52:56;;;;;;;3.83;0.65;;;6.30;99.90;;;;;;5006669;28;20045;-68
2024/01/06 09:55:26;;;;;;;5.75;0.77;;;6.30;99.90;;;;;;5004502;28;20115;-68
2024/01/06 09:57:53;;;;;;;4.38;1.00;;;6.40;99.90;;;;;;5003863;28;20049;-68
2024/01/06 10:00:21;;;;;;;1.70;0.57;;;6.30;99.90;;;;;;5008167;28;20050;-69
2024/01/06 10:02:51;;;;;;;3.15;0.80;;;6.30;99.90;;;;;;5001606;28;20145;-70
2024/01/06 10:05:19;;;;;;;4.75;0.73;;;6.40;99.90;;;;;;5004238;28;20054;-68
2024/01/06 10:07:46;;;;;;;14.05;2.92;;;6.50;99.90;;;;;;4987524;28;20165;-68
2024/01/06 10:10:13;;;;;;;5.75;1.10;;;6.50;99.90;;;;;;5002341;28;20050;-68
2024/01/06 10:12:40;;;;;;;4.75;1.25;;;6.50;99.90;;;;;;4976380;28;20104;-69
2024/01/06 10:15:08;;;;;;;2.20;0.90;;;6.50;99.90;;;;;;4999062;28;20140;-69
2024/01/06 10:17:39;;;;;;;4.40;0.63;;;6.40;99.90;;;;;;5003544;28;20130;-68
2024/01/06 10:20:10;;;;;;;2.10;0.90;;;6.50;99.90;;;;;;5001305;28;20469;-69
2024/01/06 10:22:38;;;;;;;3.25;1.13;;;6.50;99.90;;;;;;4989097;28;20046;-68
2024/01/06 10:25:06;;;;;;;5.43;1.02;;;6.60;99.90;;;;;;4989739;28;20052;-68
2024/01/06 10:27:39;;;;;;;3.92;1.00;;;6.60;99.90;;;;;;4966432;28;20058;-67
2024/01/06 10:30:07;;;;;;;10.32;1.25;;;6.60;99.90;;;;;;4982537;28;20463;-66
2024/01/06 10:32:36;;;;;;;1.95;0.73;;;6.60;99.90;;;;;;5003766;28;20056;-67
2024/01/06 10:35:06;;;;;;;8.95;1.50;;;6.60;99.90;;;;;;4987919;28;20132;-68
2024/01/06 10:37:33;;;;;;;3.28;0.98;;;6.70;99.90;;;;;;4969190;28;20476;-67
2024/01/06 10:40:13;;;;;;;3.55;1.10;;;6.70;99.90;;;;;;4990339;28;20050;-68
2024/01/06 10:42:41;;;;;;;5.15;1.25;;;6.70;99.90;;;;;;5000883;28;20136;-67
2024/01/06 10:45:10;;;;;;;1.90;0.98;;;6.70;99.90;;;;;;4988798;28;20050;-67
2024/01/06 10:47:37;;;;;;;3.78;0.90;;;6.80;99.90;;;;;;4999032;28;20085;-69
2024/01/06 10:50:05;;;;;;;3.85;0.98;;;6.80;99.90;;;;;;5000658;28;20133;-68
2024/01/06 10:52:32;;;;;;;2.30;0.75;;;6.80;99.90;;;;;;5006982;28;20066;-67
2024/01/06 10:54:59;;;;;;;8.43;1.27;;;6.80;99.90;;;;;;5002836;28;20054;-67
2024/01/06 10:57:27;;;;;;;1.88;0.90;;;6.70;99.90;;;;;;4989596;28;20127;-74
2024/01/06 10:59:54;;;;;;;7.35;1.77;;;6.80;99.90;;;;;;4972069;28;20049;-70
2024/01/06 11:02:21;;;;;;;4.55;1.67;;;6.70;99.90;;;;;;4991049;28;20038;-70
2024/01/06 11:04:50;;;;;;;6.18;1.83;;;6.70;99.90;;;;;;4982968;28;20501;-69
2024/01/06 11:07:20;;;;;;;7.03;2.20;;;6.70;99.90;;;;;;5001800;28;20050;-71
2024/01/06 11:10:20;;;;;;;6.93;2.50;;;6.70;99.90;;;;;;4954905;28;20046;-69
2024/01/06 11:13:26;;;;;;;8.60;2.40;;;6.70;99.90;;;;;;4994943;28;20529;-69
2024/01/06 11:15:53;;;;;;;3.88;1.75;;;6.80;99.90;;;;;;4886344;29;20048;-69
2024/01/06 11:18:40;;;;;;;7.15;2.30;;;6.90;99.90;;;;;;4958558;28;20081;-70
2024/01/06 11:21:25;;;;;;;9.35;2.35;;;6.90;99.90;;;;;;5000294;28;20412;-68
2024/01/06 11:24:20;;;;;;;4.53;2.20;;;6.90;99.90;;;;;;4996904;28;20121;-69
2024/01/06 11:26:51;;;;;;;4.45;1.95;;;7.00;99.90;;;;;;5003699;28;20149;-69
2024/01/06 11:29:20;;;;;;;8.90;2.28;;;7.00;99.90;;;;;;4990148;28;20135;-68
2024/01/06 11:32:24;;;;;;;4.85;1.60;;;7.00;99.90;;;;;;5004011;28;20050;-68
2024/01/06 11:34:52;;;;;;;7.45;2.30;;;7.00;99.90;;;;;;5004684;28;20808;-69
2024/01/06 11:37:24;;;;;;;5.43;1.80;;;7.00;99.90;;;;;;5005778;28;20456;-68
2024/01/06 11:39:51;;;;;;;3.40;1.80;;;7.00;99.90;;;;;;4988476;28;20170;-69
2024/01/06 11:42:17;;;;;;;3.63;1.63;;;7.00;99.90;;;;;;5003660;28;20054;-70
2024/01/06 11:44:47;;;;;;;9.32;1.92;;;7.10;99.90;;;;;;4999667;28;20109;-68
2024/01/06 11:47:16;;;;;;;4.85;1.63;;;7.00;99.90;;;;;;5002896;28;20045;-68
2024/01/06 11:49:44;;;;;;;3.17;1.48;;;7.00;99.90;;;;;;4983258;28;20093;-69
2024/01/06 11:52:11;;;;;;;2.13;1.30;;;7.00;99.90;;;;;;4971699;28;20042;-70
2024/01/06 11:54:38;;;;;;;3.13;1.38;;;7.00;99.90;;;;;;4989135;28;20050;-70
2024/01/06 11:57:05;;;;;;;7.32;1.92;;;6.90;99.90;;;;;;4970438;28;20054;-70
2024/01/06 11:59:32;;;;;;;3.25;1.42;;;6.90;99.90;;;;;;4997877;28;20105;-68
2024/01/06 12:01:59;;;;;;;3.40;1.73;;;6.80;99.90;;;;;;4997655;28;20046;-69
2024/01/06 12:04:27;;;;;;;9.30;1.70;;;6.80;99.90;;;;;;4974391;28;20061;-69
2024/01/06 12:06:54;;;;;;;3.88;1.58;;;6.80;99.90;;;;;;4998198;28;20061;-68
2024/01/06 12:09:24;;;;;;;4.00;1.52;;;6.80;99.90;;;;;;4983825;28;20054;-70
2024/01/06 12:12:05;;;;;;;4.95;1.50;;;6.80;99.90;;;;;;4995792;28;20109;-70
2024/01/06 12:14:32;;;;;;;5.15;1.77;;;6.90;99.90;;;;;;4988104;28;20096;-69
2024/01/06 12:17:04;;;;;;;4.88;1.52;;;6.90;99.90;;;;;;4982654;28;20136;-69
2024/01/06 12:19:32;;;;;;;3.55;2.00;;;6.90;99.90;;;;;;4999400;28;20050;-70
2024/01/06 12:22:04;;;;;;;5.78;1.75;;;6.90;99.90;;;;;;4990415;28;20052;-70
2024/01/06 12:24:31;;;;;;;6.70;2.03;;;7.00;99.90;;;;;;4968337;28;20050;-69
2024/01/06 12:26:58;;;;;;;12.35;1.67;;;7.10;99.90;;;;;;4987839;28;20062;-70
2024/01/06 12:29:31;;;;;;;4.30;1.98;;;7.10;99.90;;;;;;4979506;28;20046;-70
2024/01/06 12:32:02;;;;;;;6.75;1.65;;;7.10;99.90;;;;;;4987313;28;20068;-69
2024/01/06 12:34:29;;;;;;;7.70;1.77;;;7.10;99.90;;;;;;4987417;28;20049;-69
2024/01/06 12:36:56;;;;;;;2.63;1.45;;;7.10;99.90;;;;;;4982970;28;20555;-69
2024/01/06 12:39:23;;;;;;;8.45;1.73;;;7.10;99.90;;;;;;4983059;28;20057;-69
2024/01/06 12:41:51;;;;;;;2.58;1.30;;;7.10;99.90;;;;;;4985739;28;20045;-70
2024/01/06 12:44:18;;;;;;;2.40;1.40;;;7.00;99.90;;;;;;4986341;28;20058;-71
2024/01/06 12:46:45;;;;;;;4.50;2.45;;;7.00;99.90;;;;;;5000431;28;20106;-69
2024/01/06 12:49:11;;;;;;;10.18;1.67;;;7.00;99.90;;;;;;4984568;28;20054;-69
2024/01/06 12:51:39;;;;;;;7.13;1.70;;;7.00;99.90;;;;;;4974729;28;20765;-76
2024/01/06 12:54:05;;;;;;;5.68;1.85;;;7.00;99.90;;;;;;4976339;28;20049;-71
2024/01/06 12:56:32;;;;;;;6.28;1.77;;;6.90;99.90;;;;;;5001462;28;20567;-69
2024/01/06 12:58:59;;;;;;;2.75;1.42;;;6.90;99.90;;;;;;4969135;28;20107;-70